createdAt,value
2023-02-12T00:01:36.475Z,99286.38
2023-02-12T00:04:24.993Z,99295.34
2023-02-12T00:07:13.219Z,99289.38
2023-02-12T00:09:54.953Z,99284.38
2023-02-12T00:12:37.142Z,99292.44
2023-02-12T00:15:26.052Z,99294.72
2023-02-12T00:18:15.272Z,99292.13
2023-02-12T00:20:56.967Z,99289.78
2023-02-12T00:23:47.324Z,99297.38
2023-02-12T00:26:30.944Z,99291.69
2023-02-12T00:29:13.152Z,99299.72
2023-02-12T00:32:01.967Z,99297.78
2023-02-12T00:34:50.178Z,99316.47
2023-02-12T00:37:32.009Z,99311.91
2023-02-12T00:40:21.224Z,99313.00
2023-02-12T00:43:02.924Z,99308.59
2023-02-12T00:45:53.413Z,99309.03
2023-02-12T00:48:36.948Z,99307.44
2023-02-12T00:51:25.221Z,99309.88
2023-02-12T00:54:06.961Z,99325.72
2023-02-12T00:56:57.015Z,99314.56
2023-02-12T00:59:39.967Z,99326.34
2023-02-12T01:02:28.857Z,99325.44
2023-02-12T01:05:18.950Z,99322.59
2023-02-12T01:08:01.277Z,99324.06
2023-02-12T01:10:49.965Z,99322.59
2023-02-12T01:13:42.952Z,99327.53
2023-02-12T01:16:39.193Z,99333.38
2023-02-12T01:19:28.911Z,99337.59
2023-02-12T01:22:12.008Z,99347.38
2023-02-12T01:25:00.251Z,99349.25
2023-02-12T01:27:41.894Z,99339.59
2023-02-12T01:30:31.519Z,99346.09
2023-02-12T01:33:25.942Z,99355.34
2023-02-12T01:36:15.345Z,99360.66
2023-02-12T01:38:57.902Z,99365.63
2023-02-12T01:41:52.131Z,99373.22
2023-02-12T01:44:38.360Z,99375.78
2023-02-12T01:47:26.921Z,99376.16
2023-02-12T01:50:09.274Z,99382.91
2023-02-12T01:53:05.188Z,99382.56
2023-02-12T01:55:51.192Z,99388.91
2023-02-12T01:58:46.920Z,99395.59
2023-02-12T02:01:43.382Z,99396.59
2023-02-12T02:04:37.168Z,99412.88
2023-02-12T02:07:19.939Z,99422.75
2023-02-12T02:10:09.244Z,99428.72
2023-02-12T02:13:09.972Z,99441.03
2023-02-12T02:16:05.259Z,99435.31
2023-02-12T02:19:01.032Z,99450.22
2023-02-12T02:22:30.235Z,99448.34
2023-02-12T02:25:39.967Z,99451.44
2023-02-12T02:28:55.659Z,99459.69
2023-02-12T02:31:55.015Z,99463.47
2023-02-12T02:34:55.998Z,99458.44
2023-02-12T02:37:47.323Z,99464.38
2023-02-12T02:40:46.077Z,99476.38
2023-02-12T02:43:52.083Z,99482.13
2023-02-12T02:46:57.040Z,99489.91
2023-02-12T02:50:00.210Z,99495.66
2023-02-12T02:52:48.940Z,99500.69
2023-02-12T02:55:45.886Z,99532.09
2023-02-12T02:58:43.967Z,99514.75
2023-02-12T03:01:32.612Z,99534.44
2023-02-12T03:04:26.960Z,99524.50
2023-02-12T03:07:52.990Z,99539.47
2023-02-12T03:10:44.227Z,99543.13
2023-02-12T03:13:42.927Z,99557.16
2023-02-12T03:16:33.431Z,99568.44
2023-02-12T03:19:32.958Z,99572.72
2023-02-12T03:22:20.294Z,99579.59
2023-02-12T03:25:25.881Z,99583.00
2023-02-12T03:28:31.935Z,99592.63
2023-02-12T03:31:20.207Z,99580.81
2023-02-12T03:34:27.032Z,99591.81
2023-02-12T03:37:41.246Z,99584.47
2023-02-12T03:40:31.963Z,99591.72
2023-02-12T03:43:44.333Z,99589.44
2023-02-12T03:46:29.982Z,99594.03
2023-02-12T03:49:46.860Z,99600.56
2023-02-12T03:52:35.942Z,99589.53
2023-02-12T03:55:19.369Z,99610.38
2023-02-12T03:58:14.921Z,99618.06
2023-02-12T04:01:04.929Z,99611.16
2023-02-12T04:03:47.234Z,99615.72
2023-02-12T04:06:36.907Z,99602.81
2023-02-12T04:09:27.829Z,99606.56
2023-02-12T04:12:20.892Z,99612.59
2023-02-12T04:15:15.247Z,99613.88
2023-02-12T04:18:12.983Z,99613.63
2023-02-12T04:21:23.298Z,99615.97
2023-02-12T04:24:18.837Z,99621.81
2023-02-12T04:27:31.148Z,99622.94
2023-02-12T04:31:04.072Z,99629.22
2023-02-12T04:34:15.781Z,99628.19
2023-02-12T04:37:17.906Z,99630.13
2023-02-12T04:40:08.962Z,99645.41
2023-02-12T04:43:00.136Z,99644.06
2023-02-12T04:45:43.912Z,99639.31
2023-02-12T04:48:32.247Z,99639.06
2023-02-12T04:51:14.293Z,99642.38
2023-02-12T04:54:02.236Z,99640.22
2023-02-12T04:56:44.966Z,99642.66
2023-02-12T04:59:34.230Z,99645.50
2023-02-12T05:02:16.865Z,99648.44
2023-02-12T05:05:05.258Z,99645.75
2023-02-12T05:07:47.975Z,99643.00
2023-02-12T05:10:37.170Z,99651.03
2023-02-12T05:13:19.850Z,99659.34
2023-02-12T05:16:04.973Z,99660.47
2023-02-12T05:18:54.038Z,99651.84
2023-02-12T05:21:43.238Z,99670.38
2023-02-12T05:24:25.991Z,99665.22
2023-02-12T05:27:16.321Z,99660.50
2023-02-12T05:29:57.927Z,99653.94
2023-02-12T05:32:46.269Z,99663.34
2023-02-12T05:35:40.873Z,99658.44
2023-02-12T05:38:30.748Z,99652.09
2023-02-12T05:41:18.973Z,99652.66
2023-02-12T05:44:08.410Z,99653.16
2023-02-12T05:46:50.980Z,99654.22
2023-02-12T05:49:40.221Z,99656.75
2023-02-12T05:52:22.881Z,99657.06
2023-02-12T05:55:12.172Z,99663.53
2023-02-12T05:57:54.611Z,99657.25
2023-02-12T06:00:44.360Z,99651.03
2023-02-12T06:03:25.955Z,99651.75
2023-02-12T06:06:15.011Z,99650.13
2023-02-12T06:08:59.404Z,99652.47
2023-02-12T06:11:47.979Z,99650.63
2023-02-12T06:14:31.911Z,99649.38
2023-02-12T06:17:20.875Z,99651.00
2023-02-12T06:20:03.139Z,99651.25
2023-02-12T06:22:51.934Z,99646.69
2023-02-12T06:25:34.229Z,99651.72
2023-02-12T06:28:23.055Z,99644.06
2023-02-12T06:31:05.335Z,99639.97
2023-02-12T06:33:53.964Z,99638.16
2023-02-12T06:36:45.661Z,99631.22
2023-02-12T06:39:28.898Z,99637.69
2023-02-12T06:42:17.368Z,99630.56
2023-02-12T06:45:00.004Z,99626.13
2023-02-12T06:47:48.218Z,99623.44
2023-02-12T06:50:30.966Z,99619.16
2023-02-12T06:53:19.232Z,99623.13
2023-02-12T06:56:01.976Z,99620.41
2023-02-12T06:58:53.192Z,99616.19
2023-02-12T07:01:38.186Z,99616.09
2023-02-12T07:04:26.229Z,99616.34
2023-02-12T07:07:08.997Z,99611.59
2023-02-12T07:09:57.172Z,99609.88
2023-02-12T07:12:41.911Z,99602.53
2023-02-12T07:15:30.172Z,99603.03
2023-02-12T07:18:12.953Z,99599.19
2023-02-12T07:20:57.893Z,99600.09
2023-02-12T07:23:51.032Z,99595.44
2023-02-12T07:26:40.182Z,99593.34
2023-02-12T07:29:22.956Z,99589.50
2023-02-12T07:32:12.040Z,99588.72
2023-02-12T07:34:55.342Z,99579.84
2023-02-12T07:37:43.954Z,99581.25
2023-02-12T07:40:26.188Z,99576.34
2023-02-12T07:43:14.904Z,99572.97
2023-02-12T07:46:03.902Z,99568.16
2023-02-12T07:48:54.260Z,99569.19
2023-02-12T07:51:36.917Z,99562.63
2023-02-12T07:54:26.137Z,99566.31
2023-02-12T07:57:08.969Z,99562.56
2023-02-12T07:59:51.119Z,99561.03
2023-02-12T08:02:40.965Z,99558.81
2023-02-12T08:05:30.236Z,99559.44
2023-02-12T08:08:13.272Z,99552.16
2023-02-12T08:11:04.137Z,99543.06
2023-02-12T08:13:47.002Z,99550.19
2023-02-12T08:16:30.920Z,99540.91
2023-02-12T08:19:24.880Z,99536.13
2023-02-12T08:22:14.201Z,99535.69
2023-02-12T08:24:55.843Z,99535.69
2023-02-12T08:27:44.207Z,99528.00
2023-02-12T08:30:27.092Z,99535.19
2023-02-12T08:33:15.247Z,99518.72
2023-02-12T08:36:18.876Z,99517.06
2023-02-12T08:39:02.232Z,99521.06
2023-02-12T08:41:50.977Z,99526.56
2023-02-12T08:44:34.157Z,99531.94
2023-02-12T08:47:22.875Z,99522.56
2023-02-12T08:50:05.146Z,99519.50
2023-02-12T08:52:53.959Z,99528.13
2023-02-12T08:55:36.193Z,99512.41
2023-02-12T08:58:24.924Z,99520.00
2023-02-12T09:01:08.252Z,99509.22
2023-02-12T09:03:57.956Z,99509.44
2023-02-12T09:06:42.297Z,99498.69
2023-02-12T09:09:31.199Z,99489.78
2023-02-12T09:12:13.188Z,99490.66
2023-02-12T09:15:01.954Z,99499.19
2023-02-12T09:17:44.818Z,99490.53
2023-02-12T09:20:33.911Z,99492.09
2023-02-12T09:23:21.229Z,99487.50
2023-02-12T09:26:13.999Z,99491.50
2023-02-12T09:28:58.300Z,99486.53
2023-02-12T09:31:47.034Z,99486.66
2023-02-12T09:34:29.262Z,99488.41
2023-02-12T09:37:17.960Z,99490.56
2023-02-12T09:40:00.206Z,99489.34
2023-02-12T09:43:11.825Z,99493.13
2023-02-12T09:46:25.737Z,99500.50
2023-02-12T09:49:22.872Z,99508.34
2023-02-12T09:52:13.775Z,99501.81
2023-02-12T09:55:03.882Z,99495.03
2023-02-12T09:57:46.423Z,99491.28
2023-02-12T10:00:40.002Z,99486.03
2023-02-12T10:03:25.283Z,99487.06
2023-02-12T10:06:19.903Z,99487.88
2023-02-12T10:09:19.411Z,99481.34
2023-02-12T10:12:46.853Z,99490.69
2023-02-12T10:15:53.437Z,99492.09
2023-02-12T10:18:59.904Z,99494.66
2023-02-12T10:21:52.180Z,99494.56
2023-02-12T10:25:02.941Z,99487.19
2023-02-12T10:27:54.198Z,99486.97
2023-02-12T10:30:55.081Z,99483.31
2023-02-12T10:33:47.457Z,99489.16
2023-02-12T10:36:53.351Z,99482.38
2023-02-12T10:39:50.357Z,99480.38
2023-02-12T10:42:51.943Z,99487.97
2023-02-12T10:45:45.194Z,99487.03
2023-02-12T10:48:40.919Z,99487.34
2023-02-12T10:51:44.206Z,99495.84
2023-02-12T10:54:49.060Z,99492.47
2023-02-12T10:57:33.151Z,99497.81
2023-02-12T11:00:37.181Z,99492.41
2023-02-12T11:03:22.601Z,99495.56
2023-02-12T11:06:38.956Z,99498.97
2023-02-12T11:09:48.355Z,99503.75
2023-02-12T11:12:50.969Z,99508.63
2023-02-12T11:15:38.201Z,99502.75
2023-02-12T11:18:34.944Z,99502.25
2023-02-12T11:21:21.335Z,99506.88
2023-02-12T11:24:34.962Z,99504.50
2023-02-12T11:27:37.396Z,99497.50
2023-02-12T11:30:28.926Z,99491.75
2023-02-12T11:33:40.287Z,99482.38
2023-02-12T11:36:33.881Z,99489.84
2023-02-12T11:39:28.172Z,99497.75
2023-02-12T11:42:32.381Z,99495.97
2023-02-12T11:45:15.186Z,99497.41
2023-02-12T11:48:03.864Z,99499.81
2023-02-12T11:50:46.307Z,99499.28
2023-02-12T11:53:49.962Z,99500.41
2023-02-12T11:56:48.338Z,99504.41
2023-02-12T11:59:47.936Z,99502.03
2023-02-12T12:02:57.202Z,99513.19
2023-02-12T12:05:54.014Z,99512.50
2023-02-12T12:08:52.167Z,99519.09
2023-02-12T12:12:00.946Z,99517.91
2023-02-12T12:15:06.768Z,99530.53
2023-02-12T12:18:22.887Z,99529.19
2023-02-12T12:21:24.247Z,99530.88
2023-02-12T12:24:21.862Z,99537.47
2023-02-12T12:27:31.805Z,99535.13
2023-02-12T12:30:52.826Z,99540.03
2023-02-12T12:33:57.947Z,99542.75
2023-02-12T12:37:08.415Z,99555.38
2023-02-12T12:40:23.849Z,99535.44
2023-02-12T12:43:24.301Z,99542.69
2023-02-12T12:46:08.902Z,99545.81
2023-02-12T12:49:21.386Z,99542.13
2023-02-12T12:52:36.889Z,99533.75
2023-02-12T12:55:42.822Z,99533.78
2023-02-12T12:58:57.950Z,99538.31
2023-02-12T13:02:04.266Z,99551.31
2023-02-12T13:04:59.942Z,99554.59
2023-02-12T13:08:04.154Z,99562.41
2023-02-12T13:11:08.863Z,99560.91
2023-02-12T13:14:03.170Z,99583.19
2023-02-12T13:17:20.834Z,99554.41
2023-02-12T13:20:39.885Z,99559.34
2023-02-12T13:23:39.142Z,99565.09
2023-02-12T13:26:30.930Z,99572.13
2023-02-12T13:29:16.302Z,99570.06
2023-02-12T13:32:14.112Z,99566.31
2023-02-12T13:35:11.183Z,99570.69
2023-02-12T13:38:04.005Z,99566.31
2023-02-12T13:40:50.684Z,99574.19
2023-02-12T13:43:55.824Z,99565.56
2023-02-12T13:47:00.266Z,99573.81
2023-02-12T13:50:05.011Z,99568.44
2023-02-12T13:53:15.403Z,99573.19
2023-02-12T13:56:35.888Z,99587.38
2023-02-12T13:59:37.363Z,99583.66
2023-02-12T14:02:46.050Z,99600.53
2023-02-12T14:05:39.236Z,99599.50
2023-02-12T14:08:44.917Z,99598.03
2023-02-12T14:11:34.250Z,99598.47
2023-02-12T14:14:35.909Z,99609.16
2023-02-12T14:17:44.200Z,99611.16
2023-02-12T14:20:48.194Z,99612.41
2023-02-12T14:23:38.309Z,99606.22
2023-02-12T14:26:29.909Z,99599.25
2023-02-12T14:29:25.882Z,99602.94
2023-02-12T14:32:52.952Z,99601.66
2023-02-12T14:35:58.001Z,99610.47
2023-02-12T14:38:49.874Z,99612.72
2023-02-12T14:41:38.612Z,99613.53
2023-02-12T14:44:30.927Z,99620.94
2023-02-12T14:47:24.260Z,99610.63
2023-02-12T14:50:30.998Z,99599.31
2023-02-12T14:53:36.436Z,99597.84
2023-02-12T14:56:30.954Z,99602.19
2023-02-12T14:59:23.445Z,99600.56
2023-02-12T15:02:13.896Z,99611.84
2023-02-12T15:04:58.487Z,99624.94
2023-02-12T15:08:07.845Z,99623.47
2023-02-12T15:11:04.982Z,99613.84
2023-02-12T15:14:09.698Z,99604.78
2023-02-12T15:17:01.831Z,99589.63
2023-02-12T15:19:56.263Z,99583.03
2023-02-12T15:22:59.248Z,99590.34
2023-02-12T15:25:41.993Z,99588.06
2023-02-12T15:28:45.924Z,99585.84
2023-02-12T15:31:37.397Z,99579.06
2023-02-12T15:34:28.855Z,99579.88
2023-02-12T15:37:31.944Z,99581.69
2023-02-12T15:40:24.188Z,99581.91
2023-02-12T15:43:15.869Z,99578.34
2023-02-12T15:45:58.506Z,99593.94
2023-02-12T15:48:51.861Z,99599.19
2023-02-12T15:51:48.097Z,99600.00
2023-02-12T15:54:30.893Z,99596.53
2023-02-12T15:57:27.293Z,99593.84
2023-02-12T16:00:30.930Z,99588.13
2023-02-12T16:03:38.327Z,99583.66
2023-02-12T16:06:24.962Z,99579.94
2023-02-12T16:09:31.237Z,99594.41
2023-02-12T16:12:20.870Z,99592.59
2023-02-12T16:15:11.943Z,99582.78
2023-02-12T16:17:56.902Z,99577.44
2023-02-12T16:20:47.865Z,99579.34
2023-02-12T16:23:31.905Z,99577.84
2023-02-12T16:26:22.872Z,99576.78
2023-02-12T16:29:12.818Z,99573.03
2023-02-12T16:32:05.328Z,99575.09
2023-02-12T16:34:47.834Z,99566.78
2023-02-12T16:37:46.740Z,99584.44
2023-02-12T16:40:34.241Z,99584.50
2023-02-12T16:43:34.231Z,99584.41
2023-02-12T16:46:17.656Z,99578.41
2023-02-12T16:49:09.298Z,99583.13
2023-02-12T16:51:51.883Z,99585.75
2023-02-12T16:54:49.810Z,99576.31
2023-02-12T16:57:38.753Z,99585.50
2023-02-12T17:00:32.799Z,99583.16
2023-02-12T17:03:23.013Z,99585.81
2023-02-12T17:06:05.130Z,99575.41
2023-02-12T17:08:54.137Z,99581.63
2023-02-12T17:11:37.070Z,99584.31
2023-02-12T17:14:27.874Z,99589.88
2023-02-12T17:17:10.366Z,99603.69
2023-02-12T17:20:00.909Z,99594.06
2023-02-12T17:22:43.172Z,99588.13
2023-02-12T17:25:31.832Z,99597.50
2023-02-12T17:28:14.375Z,99589.66
2023-02-12T17:31:02.990Z,99589.19
2023-02-12T17:33:45.530Z,99585.53
2023-02-12T17:36:41.843Z,99586.94
2023-02-12T17:39:30.202Z,99591.56
2023-02-12T17:42:13.842Z,99595.22
2023-02-12T17:45:03.259Z,99591.56
2023-02-12T17:47:47.887Z,99584.31
2023-02-12T17:50:37.263Z,99585.66
2023-02-12T17:53:21.132Z,99586.59
2023-02-12T17:56:09.221Z,99578.56
2023-02-12T17:58:51.875Z,99596.56
2023-02-12T18:01:42.115Z,99587.91
2023-02-12T18:04:25.026Z,99589.50
2023-02-12T18:07:13.229Z,99582.34
2023-02-12T18:09:55.878Z,99576.22
2023-02-12T18:12:44.162Z,99578.16
2023-02-12T18:15:28.795Z,99574.94
2023-02-12T18:18:19.110Z,99577.44
2023-02-12T18:21:01.820Z,99569.50
2023-02-12T18:23:51.245Z,99571.78
2023-02-12T18:26:33.898Z,99569.25
2023-02-12T18:29:22.198Z,99566.47
2023-02-12T18:32:04.822Z,99556.72
2023-02-12T18:34:54.104Z,99561.28
2023-02-12T18:37:49.877Z,99555.81
2023-02-12T18:40:32.067Z,99553.53
2023-02-12T18:43:20.837Z,99550.50
2023-02-12T18:46:17.968Z,99546.44
2023-02-12T18:49:00.220Z,99544.94
2023-02-12T18:51:48.836Z,99533.38
2023-02-12T18:54:31.145Z,99523.50
2023-02-12T18:57:19.805Z,99515.97
2023-02-12T19:00:08.824Z,99514.53
2023-02-12T19:02:57.104Z,99513.50
2023-02-12T19:05:39.784Z,99508.38
2023-02-12T19:08:22.150Z,99501.81
2023-02-12T19:11:10.824Z,99501.72
2023-02-12T19:14:00.335Z,99485.00
2023-02-12T19:16:43.870Z,99486.03
2023-02-12T19:19:33.317Z,99481.38
2023-02-12T19:22:14.802Z,99476.00
2023-02-12T19:25:05.152Z,99484.03
2023-02-12T19:27:47.871Z,99472.97
2023-02-12T19:30:37.130Z,99468.97
2023-02-12T19:33:25.809Z,99470.34
2023-02-12T19:36:23.898Z,99462.22
2023-02-12T19:39:13.097Z,99449.59
2023-02-12T19:41:55.846Z,99443.63
2023-02-12T19:44:45.651Z,99433.25
2023-02-12T19:47:28.816Z,99432.19
2023-02-12T19:50:18.120Z,99448.34
2023-02-12T19:53:00.868Z,99436.06
2023-02-12T19:55:49.131Z,99437.16
2023-02-12T19:58:30.762Z,99444.97
2023-02-12T20:01:27.271Z,99436.63
2023-02-12T20:04:10.823Z,99436.16
2023-02-12T20:07:00.241Z,99437.53
2023-02-12T20:09:42.765Z,99443.03
2023-02-12T20:12:31.135Z,99440.19
2023-02-12T20:15:13.785Z,99438.53
2023-02-12T20:18:02.163Z,99440.56
2023-02-12T20:20:45.199Z,99432.13
2023-02-12T20:23:34.145Z,99420.34
2023-02-12T20:26:19.860Z,99412.53
2023-02-12T20:29:09.086Z,99410.75
2023-02-12T20:31:52.976Z,99403.69
2023-02-12T20:34:50.621Z,99391.84
2023-02-12T20:37:46.802Z,99391.50
2023-02-12T20:40:29.032Z,99391.38
2023-02-12T20:43:17.818Z,99390.75
2023-02-12T20:46:20.141Z,99383.59
2023-02-12T20:49:03.803Z,99376.66
2023-02-12T20:51:53.788Z,99372.44
2023-02-12T20:54:42.716Z,99368.66
2023-02-12T20:57:32.818Z,99370.28
2023-02-12T21:00:17.088Z,99357.66
2023-02-12T21:03:05.817Z,99349.94
2023-02-12T21:05:48.076Z,99347.47
2023-02-12T21:08:36.843Z,99346.19
2023-02-12T21:11:25.101Z,99331.84
2023-02-12T21:14:21.796Z,99330.47
2023-02-12T21:17:11.839Z,99328.91
2023-02-12T21:20:00.128Z,99318.28
2023-02-12T21:22:41.840Z,99308.50
2023-02-12T21:25:24.119Z,99302.94
2023-02-12T21:28:12.767Z,99297.72
2023-02-12T21:31:01.172Z,99283.25
2023-02-12T21:33:43.830Z,99290.59
2023-02-12T21:36:44.646Z,99294.13
2023-02-12T21:39:35.860Z,99301.81
2023-02-12T21:42:18.107Z,99300.00
2023-02-12T21:45:07.208Z,99294.22
2023-02-12T21:47:49.146Z,99294.06
2023-02-12T21:50:42.719Z,99282.06
2023-02-12T21:53:25.102Z,99275.75
2023-02-12T21:56:14.744Z,99282.06
2023-02-12T21:58:58.032Z,99275.38
2023-02-12T22:01:50.783Z,99270.84
2023-02-12T22:04:39.716Z,99272.13
2023-02-12T22:07:28.747Z,99258.84
2023-02-12T22:10:11.058Z,99256.59
2023-02-12T22:12:59.761Z,99257.75
2023-02-12T22:15:42.026Z,99249.13
2023-02-12T22:18:30.759Z,99238.69
2023-02-12T22:21:15.088Z,99242.25
2023-02-12T22:24:04.756Z,99240.09
2023-02-12T22:26:53.783Z,99231.38
2023-02-12T22:29:42.069Z,99230.91
2023-02-12T22:32:24.971Z,99222.88
2023-02-12T22:35:14.045Z,99223.59
2023-02-12T22:38:02.848Z,99238.25
2023-02-12T22:40:46.117Z,99237.31
2023-02-12T22:43:37.710Z,99224.00
2023-02-12T22:46:22.145Z,99227.72
2023-02-12T22:49:10.796Z,99223.78
2023-02-12T22:51:59.714Z,99230.81
2023-02-12T22:54:49.033Z,99222.78
2023-02-12T22:57:31.728Z,99212.44
2023-02-12T23:00:14.417Z,99198.00
2023-02-12T23:03:03.742Z,99197.84
2023-02-12T23:05:45.928Z,99199.13
2023-02-12T23:08:34.804Z,99194.50
2023-02-12T23:11:23.700Z,99193.22
2023-02-12T23:14:07.749Z,99199.34
2023-02-12T23:16:57.165Z,99190.00
2023-02-12T23:19:39.802Z,99197.97
2023-02-12T23:22:28.051Z,99197.19
2023-02-12T23:25:09.718Z,99190.44
2023-02-12T23:27:58.000Z,99188.22
2023-02-12T23:30:40.823Z,99185.94
2023-02-12T23:33:29.046Z,99185.56
2023-02-12T23:36:24.763Z,99186.50
2023-02-12T23:39:13.007Z,99178.09
2023-02-12T23:41:54.778Z,99179.19
2023-02-12T23:44:43.101Z,99186.41
2023-02-12T23:47:24.775Z,99193.91
2023-02-12T23:50:15.173Z,99178.47
2023-02-12T23:52:57.767Z,99183.22
2023-02-12T23:55:48.086Z,99178.56
2023-02-12T23:58:30.088Z,99175.38
